Terminal Aerodrome Forecast
Issued by NWS Sioux Falls, SD

Home | Current Version | Previous Version | Text Only | Print | Product List | Glossary Off
Versions: 1 2 3 4 5 6 7 8 9 10 11 12 13 14 15 16 17 18 19 20 21

000
FTUS43 KFSD 202333
TAFHON
TAF
KHON 202333Z 2100/2124 17010KT 3SM BR OVC004
     FM210200 17008KT 2SM BR OVC003
     FM210500 17008KT 1/2SM FG OVC002
     FM211700 16011KT 2SM BR OVC004
     FM212000 15012KT 4SM BR OVC007=

USA.gov is the U.S. government's official web portal to all federal, state and local government web resources and services.